createdAt,value
2018-12-12T00:00:03.557Z,47.4
2018-12-12T00:00:52.924Z,47.4
2018-12-12T00:01:43.547Z,47.4
2018-12-12T00:02:33.321Z,47.3
2018-12-12T00:03:23.665Z,47.3
2018-12-12T00:04:13.159Z,47.3
2018-12-12T00:05:03.526Z,47.3
2018-12-12T00:05:53.282Z,47.3
2018-12-12T00:06:43.337Z,47.3
2018-12-12T00:25:00.561Z,47.1
2018-12-12T00:25:49.551Z,47.1
2018-12-12T00:26:39.938Z,47.1
2018-12-12T00:27:30.208Z,47.1
2018-12-12T00:28:19.435Z,47.1
2018-12-12T00:29:09.216Z,47.1
2018-12-12T00:30:00.606Z,47.1
2018-12-12T00:30:50.433Z,47.1
2018-12-12T00:31:39.676Z,47.1
2018-12-12T00:32:30.261Z,47.1
2018-12-12T00:33:20.331Z,47.1
2018-12-12T00:34:10.420Z,47.1
2018-12-12T00:35:00.758Z,47.1
2018-12-12T00:35:50.239Z,47.1
2018-12-12T00:36:40.276Z,47.1
2018-12-12T00:37:30.676Z,47.1
2018-12-12T00:38:20.395Z,47.1
2018-12-12T00:39:11.020Z,47.1
2018-12-12T00:40:00.625Z,47.1
2018-12-12T00:40:51.120Z,47.1
2018-12-12T00:41:41.211Z,47
2018-12-12T00:42:31.005Z,47
2018-12-12T00:43:20.747Z,47
2018-12-12T00:44:11.072Z,47.1
2018-12-12T00:45:01.920Z,47
2018-12-12T00:45:51.160Z,47
2018-12-12T00:46:40.705Z,47
2018-12-12T00:47:31.070Z,47
2018-12-12T00:48:20.517Z,47
2018-12-12T00:49:11.996Z,47
2018-12-12T00:50:00.937Z,47
2018-12-12T00:50:50.996Z,46.9
2018-12-12T00:51:42.106Z,46.9
2018-12-12T00:52:30.822Z,46.9
2018-12-12T00:53:21.746Z,46.9
2018-12-12T00:54:11.783Z,46.9
2018-12-12T00:55:01.532Z,46.9
2018-12-12T00:55:51.651Z,46.9
2018-12-12T00:56:41.666Z,46.9
2018-12-12T00:57:32.011Z,46.9
2018-12-12T00:58:22.086Z,46.9
2018-12-12T00:59:12.391Z,46.9
2018-12-12T01:00:02.219Z,46.9
2018-12-12T01:00:52.231Z,46.9
2018-12-12T01:01:42.295Z,46.9
2018-12-12T01:02:32.348Z,46.9
2018-12-12T01:03:22.138Z,46.9
2018-12-12T01:04:12.453Z,46.9
2018-12-12T01:05:01.948Z,46.9
2018-12-12T01:05:52.833Z,46.9
2018-12-12T01:06:42.050Z,46.8
2018-12-12T01:07:33.058Z,46.8
2018-12-12T01:08:22.475Z,46.8
2018-12-12T01:09:12.523Z,46.8
2018-12-12T01:10:03.858Z,46.8
2018-12-12T01:10:52.685Z,46.8
2018-12-12T01:11:42.715Z,46.8
2018-12-12T01:12:33.053Z,46.8
2018-12-12T01:13:22.890Z,46.8
2018-12-12T01:14:13.185Z,46.8
2018-12-12T01:15:03.522Z,46.8
2018-12-12T01:15:53.555Z,46.8
2018-12-12T01:16:43.112Z,46.8
2018-12-12T01:17:33.676Z,46.8
2018-12-12T01:18:23.465Z,46.8
2018-12-12T01:19:13.522Z,46.8
2018-12-12T01:20:03.445Z,46.8
2018-12-12T01:20:54.151Z,46.8
2018-12-12T01:21:44.455Z,46.8
2018-12-12T01:22:34.007Z,46.7
2018-12-12T01:23:24.080Z,46.7
2018-12-12T01:24:13.915Z,46.7
2018-12-12T01:25:04.233Z,46.7
2018-12-12T01:25:54.023Z,46.7
2018-12-12T01:26:43.729Z,46.7
2018-12-12T01:27:34.079Z,46.7
2018-12-12T01:28:23.592Z,46.7
2018-12-12T01:29:13.447Z,46.7
2018-12-12T01:30:03.027Z,46.7
2018-12-12T01:30:54.200Z,46.7
2018-12-12T01:31:43.637Z,46.7
2018-12-12T01:32:33.483Z,46.6
2018-12-12T01:33:24.024Z,46.6
2018-12-12T01:34:14.077Z,46.6
2018-12-12T01:35:04.692Z,46.6
2018-12-12T01:35:54.725Z,46.6
2018-12-12T01:36:44.786Z,46.6
2018-12-12T01:37:34.314Z,46.6
2018-12-12T01:38:24.176Z,46.6
2018-12-12T01:39:14.151Z,46.6
2018-12-12T01:40:04.502Z,46.6
2018-12-12T01:40:54.066Z,46.6
2018-12-12T01:41:44.606Z,46.6
2018-12-12T01:42:34.939Z,46.6
2018-12-12T01:43:24.503Z,46.6
2018-12-12T01:44:13.737Z,46.6
2018-12-12T01:45:04.598Z,46.6
2018-12-12T01:45:54.923Z,46.6
2018-12-12T01:46:43.628Z,46.6
2018-12-12T01:47:34.761Z,46.5
2018-12-12T01:48:24.319Z,46.6
2018-12-12T01:49:15.326Z,46.6
2018-12-12T01:50:04.909Z,46.5
2018-12-12T01:50:54.686Z,46.5
2018-12-12T01:51:45.813Z,46.5
2018-12-12T01:52:35.646Z,46.5
2018-12-12T01:53:24.436Z,46.5
2018-12-12T01:54:15.191Z,46.5
2018-12-12T01:55:05.531Z,46.5
2018-12-12T01:55:55.878Z,46.5
2018-12-12T01:56:45.373Z,46.5
2018-12-12T01:57:35.744Z,46.4
2018-12-12T01:58:26.026Z,46.4
2018-12-12T01:59:16.138Z,46.4
2018-12-12T02:00:05.620Z,46.4
2018-12-12T02:00:55.445Z,46.4
2018-12-12T02:01:46.015Z,46.4
2018-12-12T02:02:36.042Z,46.4
2018-12-12T02:03:25.820Z,46.4
2018-12-12T02:04:16.165Z,46.4
2018-12-12T02:05:06.220Z,46.4
2018-12-12T02:05:56.280Z,46.4
2018-12-12T02:06:46.617Z,46.4
2018-12-12T02:07:36.403Z,46.4
2018-12-12T02:08:26.726Z,46.4
2018-12-12T02:09:16.793Z,46.3
2018-12-12T02:10:06.567Z,46.3
2018-12-12T02:10:56.068Z,46.3
2018-12-12T02:11:46.937Z,46.3
2018-12-12T02:12:36.746Z,46.4
2018-12-12T02:13:27.085Z,46.6
2018-12-12T02:14:16.855Z,46.8
2018-12-12T02:15:06.912Z,46.9
2018-12-12T02:15:56.997Z,47.1
2018-12-12T02:16:46.794Z,47.2
2018-12-12T02:17:37.092Z,47.4
2018-12-12T02:18:27.117Z,47.6
2018-12-12T02:19:17.212Z,47.8
2018-12-12T02:20:06.452Z,47.9
2018-12-12T02:20:57.369Z,48.1
2018-12-12T02:21:46.817Z,48.3
2018-12-12T02:22:37.427Z,48.4
2018-12-12T02:23:27.742Z,48.6
2018-12-12T02:24:17.264Z,48.8
2018-12-12T02:25:07.346Z,48.9
2018-12-12T02:25:58.466Z,49.1
2018-12-12T02:26:47.648Z,49.3
2018-12-12T02:27:37.496Z,49.4
2018-12-12T02:28:28.039Z,49.6
2018-12-12T02:29:17.906Z,49.8
2018-12-12T02:30:08.010Z,49.9
2018-12-12T02:30:58.793Z,50.1
2018-12-12T02:31:48.384Z,50.3
2018-12-12T02:32:39.177Z,50.4
2018-12-12T02:33:29.209Z,50.7
2018-12-12T02:34:17.723Z,50.9
2018-12-12T02:35:08.271Z,51.1
2018-12-12T02:35:58.414Z,51.3
2018-12-12T02:36:48.401Z,51.4
2018-12-12T02:37:38.770Z,51.7
2018-12-12T02:38:29.375Z,51.8
2018-12-12T02:40:07.381Z,52.1
2018-12-12T02:40:57.981Z,52.3
2018-12-12T02:41:48.292Z,52.5
2018-12-12T02:42:38.641Z,52.7
2018-12-12T02:43:28.436Z,52.9
2018-12-12T02:44:18.538Z,53
2018-12-12T02:45:07.793Z,53.1
2018-12-12T02:45:57.588Z,53.3
2018-12-12T02:46:48.167Z,53.5
2018-12-12T02:47:37.663Z,53.7
2018-12-12T02:48:28.828Z,53.8
2018-12-12T02:49:17.987Z,53.9
2018-12-12T02:50:08.902Z,54.1
2018-12-12T02:50:58.664Z,54.3
2018-12-12T02:51:49.283Z,54.5
2018-12-12T02:52:39.329Z,54.7
2018-12-12T02:53:29.455Z,54.9
2018-12-12T02:54:18.904Z,55.1
2018-12-12T02:55:09.442Z,55.3
2018-12-12T02:55:59.463Z,55.5
2018-12-12T02:56:49.079Z,55.6
2018-12-12T02:57:40.107Z,55.8
2018-12-12T02:58:29.984Z,55.9
2018-12-12T02:59:20.279Z,56.2
2018-12-12T03:00:09.507Z,56.4
2018-12-12T03:00:59.364Z,56.5
2018-12-12T03:01:50.169Z,56.7
2018-12-12T03:02:40.436Z,56.9
2018-12-12T03:03:31.333Z,57.1
2018-12-12T03:04:19.754Z,57.3
2018-12-12T03:05:10.115Z,57.4
2018-12-12T03:06:00.950Z,57.6
2018-12-12T03:06:50.510Z,57.9
2018-12-12T03:07:41.047Z,58.1
2018-12-12T03:08:30.266Z,58.3
2018-12-12T03:09:20.876Z,58.4
2018-12-12T03:11:01.569Z,58.7
2018-12-12T03:11:51.073Z,58.9
2018-12-12T03:12:41.144Z,59.1
2018-12-12T03:13:31.213Z,59.3
2018-12-12T03:14:21.499Z,59.4
2018-12-12T03:15:11.613Z,59.6
2018-12-12T03:16:01.904Z,59.7
2018-12-12T03:16:51.129Z,59.9
2018-12-12T03:17:41.970Z,60
2018-12-12T03:18:31.268Z,60.3
2018-12-12T03:19:22.132Z,60.4
2018-12-12T03:20:12.492Z,60.6
2018-12-12T03:21:01.700Z,60.9
2018-12-12T03:21:52.401Z,61.1
2018-12-12T03:22:42.362Z,61.1
2018-12-12T03:23:32.482Z,61.3
2018-12-12T03:24:22.489Z,61.4
2018-12-12T03:25:12.297Z,61.7
2018-12-12T03:26:02.055Z,61.8
2018-12-12T03:26:52.184Z,62.1
2018-12-12T03:27:42.715Z,62.3
2018-12-12T03:28:32.498Z,62.3
2018-12-12T03:29:22.280Z,62.4
2018-12-12T03:30:13.058Z,62.5
2018-12-12T03:31:03.015Z,62.5
2018-12-12T03:31:52.827Z,62.6
2018-12-12T03:32:42.813Z,62.6
2018-12-12T03:33:32.837Z,62.6
2018-12-12T03:34:23.230Z,62.6
2018-12-12T03:35:13.266Z,62.6
2018-12-12T03:36:03.029Z,62.6
2018-12-12T03:36:52.597Z,62.6
2018-12-12T03:37:43.472Z,62.6
2018-12-12T03:38:32.924Z,62.6
2018-12-12T03:39:23.720Z,62.6
2018-12-12T03:40:13.324Z,62.6
2018-12-12T03:41:03.353Z,62.6
2018-12-12T03:41:53.740Z,62.6
2018-12-12T03:42:43.505Z,62.6
2018-12-12T03:43:33.555Z,62.6
2018-12-12T03:44:23.852Z,62.6
2018-12-12T03:45:13.379Z,62.6
2018-12-12T03:46:03.438Z,62.6
2018-12-12T03:46:53.748Z,62.6
2018-12-12T03:47:44.156Z,62.5
2018-12-12T03:48:34.156Z,62.5
2018-12-12T03:49:24.212Z,62.5
2018-12-12T03:50:14.302Z,62.5
2018-12-12T03:51:04.284Z,62.5
2018-12-12T03:51:54.104Z,62.5
2018-12-12T03:52:44.170Z,62.5
2018-12-12T03:53:33.932Z,62.5
2018-12-12T03:54:24.522Z,62.5
2018-12-12T03:55:14.326Z,62.5
2018-12-12T03:56:03.854Z,62.5
2018-12-12T03:56:54.236Z,62.5
2018-12-12T03:57:44.796Z,62.5
2018-12-12T03:58:34.878Z,62.5
2018-12-12T03:59:24.950Z,62.4
2018-12-12T04:00:14.925Z,62.4
2018-12-12T04:01:04.738Z,62.5
2018-12-12T04:01:54.883Z,62.4
2018-12-12T04:02:45.167Z,62.4
2018-12-12T04:03:34.418Z,62.4
2018-12-12T04:04:24.667Z,62.4
2018-12-12T04:05:15.044Z,62.4
2018-12-12T04:06:04.505Z,62.4
2018-12-12T04:06:55.440Z,62.4
2018-12-12T04:07:44.095Z,62.4
2018-12-12T04:08:34.759Z,62.4
2018-12-12T04:09:25.948Z,62.4
2018-12-12T04:10:15.645Z,62.4
2018-12-12T04:11:05.158Z,62.4
2018-12-12T04:11:55.818Z,62.4
2018-12-12T04:12:45.318Z,62.4
2018-12-12T04:13:35.917Z,62.4
2018-12-12T04:14:25.662Z,62.4
2018-12-12T04:15:15.787Z,62.4
2018-12-12T04:16:05.794Z,62.4
2018-12-12T04:16:55.842Z,62.4
2018-12-12T04:17:45.645Z,62.3
2018-12-12T04:18:35.665Z,62.4
2018-12-12T04:19:26.314Z,62.4
2018-12-12T04:20:15.790Z,62.3
2018-12-12T04:21:06.430Z,62.3
2018-12-12T04:21:55.928Z,62.3
2018-12-12T04:22:45.986Z,62.3
2018-12-12T04:23:36.406Z,62.3
2018-12-12T04:24:26.100Z,62.3
2018-12-12T04:25:17.318Z,62.3
2018-12-12T04:26:06.734Z,62.3
2018-12-12T04:26:56.522Z,62.3
2018-12-12T04:27:46.608Z,62.3
2018-12-12T04:28:36.068Z,62.3
2018-12-12T04:29:26.436Z,62.3
2018-12-12T04:30:17.016Z,62.3
2018-12-12T04:31:06.544Z,62.3
2018-12-12T04:31:57.156Z,62.3
2018-12-12T04:32:46.663Z,62.3
2018-12-12T04:33:36.993Z,62.3
2018-12-12T04:34:28.422Z,62.3
2018-12-12T04:35:17.644Z,62.2
2018-12-12T04:36:06.622Z,62.3
2018-12-12T04:36:57.461Z,62.2
2018-12-12T04:54:14.936Z,62.1
2018-12-12T04:55:05.329Z,62.1
2018-12-12T04:55:55.041Z,62.1
2018-12-12T04:56:45.938Z,62.1
2018-12-12T04:57:34.909Z,62
2018-12-12T04:58:24.930Z,62
2018-12-12T04:59:15.044Z,62.1
2018-12-12T05:00:04.882Z,62.1
2018-12-12T05:00:54.901Z,62.1
2018-12-12T05:01:45.502Z,62
2018-12-12T05:02:34.951Z,62
2018-12-12T05:03:25.266Z,62
2018-12-12T05:04:15.631Z,62
2018-12-12T05:05:05.972Z,62
2018-12-12T05:05:55.831Z,62
2018-12-12T05:06:46.219Z,62
2018-12-12T05:07:35.857Z,62
2018-12-12T05:08:26.385Z,61.9
2018-12-12T05:09:16.328Z,61.9
2018-12-12T05:10:06.948Z,61.9
2018-12-12T05:10:56.117Z,61.9
2018-12-12T05:11:46.438Z,61.9
2018-12-12T05:12:36.031Z,61.9
2018-12-12T05:13:26.248Z,61.9
2018-12-12T05:14:16.615Z,61.9
2018-12-12T05:15:06.423Z,61.9
2018-12-12T05:15:55.927Z,61.9
2018-12-12T05:16:46.793Z,61.9
2018-12-12T05:17:36.522Z,61.9
2018-12-12T05:18:26.585Z,61.9
2018-12-12T05:19:16.901Z,61.9
2018-12-12T05:20:06.402Z,61.9
2018-12-12T05:20:56.785Z,61.9
2018-12-12T05:21:46.265Z,61.9
2018-12-12T05:22:37.373Z,61.9
2018-12-12T05:23:26.662Z,61.9
2018-12-12T05:24:16.723Z,61.9
2018-12-12T05:25:07.115Z,61.8
2018-12-12T05:25:57.397Z,61.8
2018-12-12T05:26:47.163Z,61.8
2018-12-12T05:27:37.235Z,61.8
2018-12-12T05:28:26.724Z,61.8
2018-12-12T05:29:17.072Z,61.8
2018-12-12T05:30:07.456Z,61.8
2018-12-12T05:30:57.167Z,61.8
2018-12-12T05:31:48.459Z,61.8
2018-12-12T05:32:37.827Z,61.8
2018-12-12T05:33:27.386Z,61.8
2018-12-12T05:34:16.897Z,61.8
2018-12-12T05:35:06.917Z,61.8
2018-12-12T05:35:58.367Z,61.8
2018-12-12T05:36:48.131Z,61.8
2018-12-12T05:37:38.211Z,61.8
2018-12-12T05:38:27.136Z,61.7
2018-12-12T05:39:18.024Z,61.8
2018-12-12T05:40:07.486Z,61.7
2018-12-12T05:40:58.403Z,61.7
2018-12-12T05:41:48.193Z,61.7
2018-12-12T05:42:37.678Z,61.7
2018-12-12T05:43:28.613Z,61.7
2018-12-12T05:44:18.669Z,61.7
2018-12-12T05:45:08.128Z,61.7
2018-12-12T05:45:58.618Z,61.7
2018-12-12T05:46:48.553Z,61.6
2018-12-12T05:47:37.788Z,61.6
2018-12-12T05:48:28.906Z,61.6
2018-12-12T05:49:18.428Z,61.6
2018-12-12T05:50:08.500Z,61.6
2018-12-12T05:50:58.550Z,61.6
2018-12-12T05:51:48.600Z,61.6
2018-12-12T05:52:39.210Z,61.6
2018-12-12T05:53:28.176Z,61.6
2018-12-12T05:54:18.785Z,61.6
2018-12-12T05:55:09.121Z,61.6
2018-12-12T05:56:05.919Z,61.6
2018-12-12T05:56:55.351Z,61.6
2018-12-12T05:57:39.293Z,61.6
2018-12-12T05:58:29.350Z,61.6
2018-12-12T05:59:18.910Z,61.6
2018-12-12T06:00:09.277Z,61.6
2018-12-12T06:00:59.333Z,61.6
2018-12-12T06:01:49.173Z,61.6
2018-12-12T06:02:39.152Z,61.6
2018-12-12T06:03:29.745Z,61.5
2018-12-12T06:04:19.280Z,61.5
2018-12-12T06:05:09.332Z,61.5
2018-12-12T06:05:59.797Z,61.5
2018-12-12T06:06:49.378Z,61.5
2018-12-12T06:07:40.040Z,61.5
2018-12-12T06:08:30.005Z,61.5
2018-12-12T06:09:19.535Z,61.5
2018-12-12T06:10:10.157Z,61.5
2018-12-12T06:11:00.190Z,61.4
2018-12-12T06:11:50.310Z,61.4
2018-12-12T06:12:40.602Z,61.4
2018-12-12T06:13:30.912Z,61.4
2018-12-12T06:14:20.389Z,61.4
2018-12-12T06:15:10.767Z,61.4
2018-12-12T06:16:00.792Z,61.4
2018-12-12T06:16:50.044Z,61.4
2018-12-12T06:17:41.302Z,61.4
2018-12-12T06:18:31.061Z,61.4
2018-12-12T06:19:20.048Z,61.4
2018-12-12T06:20:10.636Z,61.4
2018-12-12T06:21:00.391Z,61.4
2018-12-12T06:21:50.938Z,61.4
2018-12-12T06:22:42.550Z,61.4
2018-12-12T06:23:31.093Z,61.4
2018-12-12T06:24:21.154Z,61.4
2018-12-12T06:25:10.414Z,61.3
2018-12-12T06:26:01.230Z,61.3
2018-12-12T06:26:51.045Z,61.3
2018-12-12T06:27:41.637Z,61.3
2018-12-12T06:28:32.573Z,61.3
2018-12-12T06:29:21.432Z,61.3
2018-12-12T06:30:11.805Z,61.3
2018-12-12T06:31:02.173Z,61.3
2018-12-12T06:31:51.920Z,61.3
2018-12-12T06:32:41.434Z,61.3
2018-12-12T06:33:31.200Z,61.3
2018-12-12T06:34:22.315Z,61.3
2018-12-12T06:35:11.306Z,61.3
2018-12-12T06:36:01.664Z,61.3
2018-12-12T06:36:51.704Z,61.3
2018-12-12T06:37:42.108Z,61.3
2018-12-12T06:38:31.557Z,61.3
2018-12-12T06:39:22.175Z,61.3
2018-12-12T06:40:12.232Z,61.3
2018-12-12T06:41:02.546Z,61.2
2018-12-12T06:41:52.637Z,61.2
2018-12-12T06:42:42.661Z,61.2
2018-12-12T06:43:31.959Z,61.2
2018-12-12T06:44:21.525Z,61.2
2018-12-12T06:45:12.354Z,61.2
2018-12-12T06:46:02.130Z,61.2
2018-12-12T06:46:52.179Z,61.2
2018-12-12T06:47:42.519Z,61.2
2018-12-12T06:48:32.803Z,61.2
2018-12-12T06:49:22.531Z,61.1
2018-12-12T06:50:12.924Z,61.1
2018-12-12T06:51:02.663Z,61.1
2018-12-12T06:51:53.055Z,61.1
2018-12-12T06:52:43.058Z,61.1
2018-12-12T06:53:32.843Z,61.1
2018-12-12T06:54:22.885Z,61.1
2018-12-12T06:55:13.215Z,61.1
2018-12-12T06:56:03.285Z,61.1
2018-12-12T06:56:53.627Z,61.1
2018-12-12T06:57:42.896Z,61.1
2018-12-12T06:58:33.183Z,61.1
2018-12-12T06:59:24.051Z,61.1
2018-12-12T07:00:13.925Z,61.1
2018-12-12T07:01:03.648Z,61.1
2018-12-12T07:01:53.677Z,61.1
2018-12-12T07:02:43.530Z,61.1
2018-12-12T07:03:33.850Z,61.1
2018-12-12T07:04:24.126Z,61
2018-12-12T07:05:13.937Z,61
2018-12-12T07:06:03.970Z,61
2018-12-12T07:06:53.752Z,61
2018-12-12T07:07:44.122Z,61
2018-12-12T07:08:33.312Z,60.9
2018-12-12T07:09:24.727Z,61
2018-12-12T07:10:14.500Z,61
2018-12-12T07:11:04.329Z,61
2018-12-12T07:11:54.658Z,60.9
2018-12-12T07:12:44.169Z,60.9
2018-12-12T07:13:39.645Z,60.9
2018-12-12T07:14:24.865Z,60.9
2018-12-12T07:15:14.874Z,60.9
2018-12-12T07:16:04.671Z,60.9
2018-12-12T07:16:54.169Z,60.9
2018-12-12T07:17:44.268Z,60.9
2018-12-12T07:18:34.852Z,60.9
2018-12-12T07:19:25.175Z,60.9
2018-12-12T07:20:15.056Z,60.9
2018-12-12T07:21:05.524Z,60.9
2018-12-12T07:21:54.959Z,60.9
2018-12-12T07:22:45.676Z,60.9
2018-12-12T07:23:34.997Z,60.9
2018-12-12T07:24:25.760Z,60.9
2018-12-12T07:25:15.814Z,60.8
2018-12-12T07:26:05.719Z,60.8
2018-12-12T07:26:55.699Z,60.9
2018-12-12T07:27:45.429Z,60.8
2018-12-12T07:28:34.962Z,60.8
2018-12-12T07:29:25.589Z,60.8
2018-12-12T07:30:15.323Z,60.8
2018-12-12T07:31:05.696Z,60.8
2018-12-12T07:31:56.054Z,60.8
2018-12-12T07:32:45.859Z,60.8
2018-12-12T07:33:36.146Z,60.8
2018-12-12T07:34:25.708Z,60.8
2018-12-12T07:35:15.483Z,60.8
2018-12-12T07:36:05.223Z,60.8
2018-12-12T07:51:05.102Z,60.6
2018-12-12T07:51:40.980Z,60.6
2018-12-12T07:52:32.489Z,60.6
2018-12-12T07:53:21.085Z,60.6
2018-12-12T07:54:11.415Z,60.6
2018-12-12T07:55:01.188Z,60.6
2018-12-12T07:55:51.520Z,60.6
2018-12-12T07:56:41.047Z,60.6
2018-12-12T07:57:30.537Z,60.6
2018-12-12T07:58:21.809Z,60.6
2018-12-12T07:59:11.759Z,60.6
2018-12-12T08:00:00.975Z,60.6
2018-12-12T08:00:51.587Z,60.6
2018-12-12T08:01:42.152Z,60.6
2018-12-12T08:02:31.709Z,60.6
2018-12-12T08:03:21.757Z,60.6
2018-12-12T08:04:11.855Z,60.5
2018-12-12T08:05:01.872Z,60.5
2018-12-12T08:05:51.671Z,60.5
2018-12-12T08:06:41.721Z,60.5
2018-12-12T08:07:31.799Z,60.5
2018-12-12T08:08:22.891Z,60.5
2018-12-12T08:09:12.454Z,60.4
2018-12-12T08:10:01.988Z,60.4
2018-12-12T08:10:51.824Z,60.4
2018-12-12T08:11:42.018Z,60.4
2018-12-12T08:12:32.369Z,60.4
2018-12-12T08:13:22.258Z,60.4
2018-12-12T08:14:12.778Z,60.4
2018-12-12T08:15:02.284Z,60.4
2018-12-12T08:15:52.081Z,60.4
2018-12-12T08:16:42.443Z,60.4
2018-12-12T08:17:33.355Z,60.4
2018-12-12T08:18:22.820Z,60.4
2018-12-12T08:19:12.854Z,60.4
2018-12-12T08:20:02.951Z,60.4
2018-12-12T08:20:52.685Z,60.4
2018-12-12T08:21:43.040Z,60.4
2018-12-12T08:22:32.825Z,60.4
2018-12-12T08:23:23.183Z,60.4
2018-12-12T08:24:12.763Z,60.4
2018-12-12T08:25:03.558Z,60.4
2018-12-12T08:25:53.387Z,60.3
2018-12-12T08:26:42.937Z,60.3
2018-12-12T08:27:32.700Z,60.3
2018-12-12T08:28:22.545Z,60.3
2018-12-12T08:29:13.372Z,60.3
2018-12-12T08:30:02.455Z,60.3
2018-12-12T08:30:52.966Z,60.3
2018-12-12T08:31:43.000Z,60.3
2018-12-12T08:32:32.952Z,60.3
2018-12-12T08:33:23.662Z,60.3
2018-12-12T08:34:13.492Z,60.3
2018-12-12T08:35:03.052Z,60.3
2018-12-12T08:35:53.722Z,60.3
2018-12-12T08:36:43.872Z,60.3
2018-12-12T08:37:34.491Z,60.3
2018-12-12T08:38:23.230Z,60.3
2018-12-12T08:39:13.354Z,60.3
2018-12-12T08:40:04.587Z,60.3
2018-12-12T08:40:54.163Z,60.2
2018-12-12T08:41:43.669Z,60.2
2018-12-12T08:42:34.013Z,60.2
2018-12-12T08:43:24.079Z,60.2
2018-12-12T08:44:14.482Z,60.2
2018-12-12T08:45:04.477Z,60.2
2018-12-12T08:45:53.964Z,60.2
2018-12-12T08:46:43.997Z,60.2
2018-12-12T08:47:33.809Z,60.1
2018-12-12T08:48:24.786Z,60.1
2018-12-12T08:49:14.012Z,60.1
2018-12-12T08:50:04.852Z,60.1
2018-12-12T08:50:54.314Z,60.1
2018-12-12T08:51:44.135Z,60.1
2018-12-12T08:52:34.701Z,60.1
2018-12-12T08:53:24.989Z,60.1
2018-12-12T08:54:14.779Z,60.1
2018-12-12T08:55:04.869Z,60.1
2018-12-12T08:55:54.921Z,60.1
2018-12-12T08:56:44.976Z,60.1
2018-12-12T08:57:34.266Z,60.1
2018-12-12T08:58:25.090Z,60.1
2018-12-12T08:59:14.941Z,60.1
2018-12-12T09:00:05.296Z,60.1
2018-12-12T09:16:27.053Z,59.9
2018-12-12T09:17:16.772Z,59.9
2018-12-12T09:18:06.532Z,59.9
2018-12-12T09:18:56.875Z,59.9
2018-12-12T09:19:46.369Z,59.9
2018-12-12T09:20:36.780Z,59.9
2018-12-12T09:21:28.305Z,59.9
2018-12-12T09:22:16.648Z,59.9
2018-12-12T09:23:07.155Z,59.9
2018-12-12T09:23:56.951Z,59.9
2018-12-12T09:24:46.707Z,59.9
2018-12-12T09:25:37.092Z,59.9
2018-12-12T09:26:27.873Z,59.8
2018-12-12T09:27:17.437Z,59.9
2018-12-12T09:28:06.952Z,59.8
2018-12-12T09:28:57.276Z,59.8
2018-12-12T09:29:47.127Z,59.8
2018-12-12T09:30:37.657Z,59.8
2018-12-12T09:31:27.959Z,59.8
2018-12-12T09:32:17.771Z,59.8
2018-12-12T09:33:07.792Z,59.8
2018-12-12T09:33:57.883Z,59.8
2018-12-12T09:34:47.119Z,59.8
2018-12-12T09:35:38.032Z,59.8
2018-12-12T09:36:27.750Z,59.8
2018-12-12T09:37:18.111Z,59.8
2018-12-12T09:38:07.891Z,59.8
2018-12-12T09:38:58.233Z,59.8
2018-12-12T09:39:47.757Z,59.8
2018-12-12T09:40:37.812Z,59.7
2018-12-12T09:41:28.404Z,59.7
2018-12-12T09:42:18.715Z,59.7
2018-12-12T09:43:08.759Z,59.7
2018-12-12T09:43:58.567Z,59.7
2018-12-12T09:44:48.851Z,59.7
2018-12-12T09:45:38.414Z,59.7
2018-12-12T09:46:29.784Z,59.7
2018-12-12T09:47:18.710Z,59.7
2018-12-12T09:48:08.098Z,59.7
2018-12-12T09:48:58.661Z,59.7
2018-12-12T09:49:48.921Z,59.6
2018-12-12T09:50:39.246Z,59.6
2018-12-12T09:51:29.369Z,59.6
2018-12-12T09:52:18.941Z,59.6
2018-12-12T09:53:09.218Z,59.6
2018-12-12T09:53:58.731Z,59.6
2018-12-12T09:54:49.248Z,59.6
2018-12-12T09:55:40.916Z,59.6
2018-12-12T09:56:29.938Z,59.6
2018-12-12T09:57:20.026Z,59.6
2018-12-12T09:58:09.773Z,59.6
2018-12-12T09:59:00.133Z,59.6
2018-12-12T09:59:50.145Z,59.6
2018-12-12T10:00:39.966Z,59.6
2018-12-12T10:01:29.735Z,59.6
2018-12-12T10:02:19.578Z,59.5
2018-12-12T10:03:10.968Z,59.5
2018-12-12T10:04:00.453Z,59.5
2018-12-12T10:04:49.188Z,59.5
2018-12-12T10:05:40.555Z,59.5
2018-12-12T10:06:29.770Z,59.5
2018-12-12T10:07:20.925Z,59.5
2018-12-12T10:08:10.780Z,59.5
2018-12-12T10:09:01.967Z,59.4
2018-12-12T10:09:50.837Z,59.4
2018-12-12T10:10:40.335Z,59.5
2018-12-12T10:11:30.674Z,59.4
2018-12-12T10:12:20.262Z,59.5
2018-12-12T10:13:11.077Z,59.4
2018-12-12T10:14:00.864Z,59.4
2018-12-12T10:14:51.254Z,59.4
2018-12-12T10:15:40.709Z,59.4
2018-12-12T10:16:31.079Z,59.4
2018-12-12T10:17:20.612Z,59.4
2018-12-12T10:18:10.874Z,59.4
2018-12-12T10:19:01.219Z,59.4
2018-12-12T10:19:51.292Z,59.4
2018-12-12T10:20:41.596Z,59.4
2018-12-12T10:21:31.669Z,59.4
2018-12-12T10:22:21.747Z,59.4
2018-12-12T10:23:11.814Z,59.4
2018-12-12T10:24:01.541Z,59.3
2018-12-12T10:24:52.271Z,59.4
2018-12-12T10:25:41.947Z,59.3
2018-12-12T10:26:31.730Z,59.3
2018-12-12T10:27:22.049Z,59.3
2018-12-12T10:28:12.151Z,59.3
2018-12-12T10:29:01.927Z,59.3
2018-12-12T10:29:51.718Z,59.3
2018-12-12T10:30:42.381Z,59.3
2018-12-12T10:31:32.458Z,59.3
2018-12-12T10:32:22.161Z,59.3
2018-12-12T10:33:12.216Z,59.3
2018-12-12T10:34:02.238Z,59.3
2018-12-12T10:34:52.312Z,59.3
2018-12-12T10:35:42.640Z,59.3
2018-12-12T10:36:31.974Z,59.3
2018-12-12T10:37:21.937Z,59.3
2018-12-12T10:38:12.255Z,59.3
2018-12-12T10:39:02.618Z,59.3
2018-12-12T10:39:52.665Z,59.2
2018-12-12T10:40:43.032Z,59.2
2018-12-12T10:41:33.093Z,59.2
2018-12-12T10:42:23.077Z,59.2
2018-12-12T10:43:12.898Z,59.2
2018-12-12T10:44:02.670Z,59.2
2018-12-12T10:44:53.279Z,59.2
2018-12-12T10:45:43.115Z,59.2
2018-12-12T10:46:32.906Z,59.2
2018-12-12T10:47:22.960Z,59.2
2018-12-12T10:48:13.025Z,59.1
2018-12-12T10:49:02.570Z,59.1
2018-12-12T10:49:53.410Z,59.1
2018-12-12T10:50:43.827Z,59.1
2018-12-12T10:51:33.202Z,59.1
2018-12-12T10:52:23.510Z,59.1
2018-12-12T10:53:14.661Z,59.1
2018-12-12T10:54:03.925Z,59.1
2018-12-12T10:54:53.692Z,59.1
2018-12-12T10:55:43.982Z,59.1
2018-12-12T10:56:33.632Z,59.1
2018-12-12T10:57:23.590Z,59.1
2018-12-12T10:58:14.439Z,59.1
2018-12-12T10:59:04.265Z,59.1
2018-12-12T10:59:54.030Z,59.1
2018-12-12T11:00:43.562Z,59.1
2018-12-12T11:01:34.434Z,59.1
2018-12-12T11:02:24.484Z,59.1
2018-12-12T11:03:13.952Z,59
2018-12-12T11:04:04.589Z,59
2018-12-12T11:04:54.369Z,59
2018-12-12T11:05:44.969Z,59
2018-12-12T11:06:34.279Z,59
2018-12-12T11:07:24.824Z,59
2018-12-12T11:08:14.866Z,59
2018-12-12T11:09:05.223Z,59
2018-12-12T11:09:55.044Z,59
2018-12-12T11:10:45.306Z,59
2018-12-12T11:11:35.421Z,58.9
2018-12-12T11:12:25.169Z,58.9
2018-12-12T11:13:14.954Z,58.9
2018-12-12T11:14:06.139Z,58.9
2018-12-12T11:14:54.531Z,58.9
2018-12-12T11:15:45.112Z,58.9
2018-12-12T11:16:35.181Z,58.9
2018-12-12T11:17:25.508Z,58.9
2018-12-12T11:18:15.353Z,58.9
2018-12-12T11:19:05.638Z,58.9
2018-12-12T11:19:55.170Z,58.9
2018-12-12T11:20:45.453Z,58.9
2018-12-12T11:21:35.790Z,58.9
2018-12-12T11:22:25.843Z,58.9
2018-12-12T11:23:15.635Z,58.9
2018-12-12T11:24:06.033Z,58.8
2018-12-12T11:24:56.093Z,58.9
2018-12-12T11:25:45.525Z,58.9
2018-12-12T11:26:35.865Z,58.8
2018-12-12T11:27:26.190Z,58.8
2018-12-12T11:28:16.007Z,58.8
2018-12-12T11:29:06.052Z,58.8
2018-12-12T11:29:56.200Z,58.8
2018-12-12T11:30:45.867Z,58.8
2018-12-12T11:31:35.660Z,58.8
2018-12-12T11:32:26.156Z,58.8
2018-12-12T11:33:16.600Z,58.8
2018-12-12T11:34:06.702Z,58.8
2018-12-12T11:34:56.482Z,58.8
2018-12-12T11:35:46.485Z,58.8
2018-12-12T11:36:38.162Z,58.8
2018-12-12T11:37:26.884Z,58.8
2018-12-12T11:38:16.964Z,58.8
2018-12-12T11:39:06.720Z,58.8
2018-12-12T11:39:57.322Z,58.8
2018-12-12T11:40:47.184Z,58.7
2018-12-12T11:41:36.909Z,58.7
2018-12-12T11:42:27.237Z,58.7
2018-12-12T11:43:17.021Z,58.7
2018-12-12T11:44:07.372Z,58.7
2018-12-12T11:44:57.085Z,58.7
2018-12-12T11:45:47.224Z,58.7
2018-12-12T11:46:37.257Z,58.7
2018-12-12T11:47:27.581Z,58.7
2018-12-12T11:48:17.361Z,58.7
2018-12-12T11:49:07.201Z,58.7
2018-12-12T11:49:57.764Z,58.6
2018-12-12T11:50:47.541Z,58.6
2018-12-12T11:51:37.344Z,58.6
2018-12-12T11:52:27.644Z,58.6
2018-12-12T11:53:17.981Z,58.6
2018-12-12T11:54:07.474Z,58.6
2018-12-12T11:54:57.806Z,58.6
2018-12-12T12:04:08.748Z,58.5
2018-12-12T12:04:58.235Z,58.5
2018-12-12T12:06:39.232Z,58.5
2018-12-12T12:07:29.044Z,58.5
2018-12-12T12:08:18.744Z,58.5
2018-12-12T12:09:08.859Z,58.5
2018-12-12T12:09:58.878Z,58.5
2018-12-12T12:10:48.722Z,58.5
2018-12-12T12:11:39.239Z,58.4
2018-12-12T12:12:29.027Z,58.5
2018-12-12T12:13:18.837Z,58.4
2018-12-12T12:14:09.432Z,58.4
2018-12-12T12:14:59.469Z,58.4
2018-12-12T12:15:49.537Z,58.4
2018-12-12T12:16:39.557Z,58.4
2018-12-12T12:17:29.668Z,58.4
2018-12-12T12:18:19.425Z,58.4
2018-12-12T12:19:09.519Z,58.4
2018-12-12T12:19:59.830Z,58.4
2018-12-12T12:20:49.906Z,58.4
2018-12-12T12:21:39.404Z,58.4
2018-12-12T12:22:29.996Z,58.4